Time;durP1;ratioP1;P1;durP2;ratioP2;P2;SDS_P1;SDS_P2;PMS_P1;PMS_P2;Temp;Humidity;BMP_temperature;BMP_pressure;BME280_temperature;BME280_humidity;BME280_pressure;Samples;Min_cycle;Max_cycle;Signal;HPM_P1;HPM_P2
2022/09/20 00:01:02;;;;;;;;;4.50;4.50;;;;;;;;5076296;28;45449;-74
2022/09/20 00:03:27;;;;;;;;;4.75;4.75;;;;;;;;5077837;28;45367;-74
2022/09/20 00:05:53;;;;;;;;;3.50;2.75;;;;;;;;5077589;28;45295;-76
2022/09/20 00:08:18;;;;;;;;;3.25;3.25;;;;;;;;5077219;28;46312;-75
2022/09/20 00:10:43;;;;;;;;;2.00;2.00;;;;;;;;5077478;28;45456;-73
2022/09/20 00:13:10;;;;;;;;;3.75;2.25;;;;;;;;5077513;27;45536;-76
2022/09/20 00:15:45;;;;;;;;;3.00;3.00;;;;;;;;5078113;28;45383;-75
2022/09/20 00:18:10;;;;;;;;;3.00;3.00;;;;;;;;5059270;28;46349;-74
2022/09/20 00:20:36;;;;;;;;;3.00;3.00;;;;;;;;5077358;28;45445;-76
2022/09/20 00:23:01;;;;;;;;;2.00;2.00;;;;;;;;5077792;28;45405;-74
2022/09/20 00:25:27;;;;;;;;;2.75;2.75;;;;;;;;5077155;28;45427;-72
2022/09/20 00:27:52;;;;;;;;;3.75;3.75;;;;;;;;5076708;28;45299;-75
2022/09/20 00:30:17;;;;;;;;;3.75;3.75;;;;;;;;5077492;28;45205;-73
2022/09/20 00:32:42;;;;;;;;;2.75;2.75;;;;;;;;5077240;28;45339;-73
2022/09/20 00:35:09;;;;;;;;;4.50;4.50;;;;;;;;5060055;28;45369;-75
2022/09/20 00:37:39;;;;;;;;;3.25;3.25;;;;;;;;5080442;28;46676;-74
2022/09/20 00:40:05;;;;;;;;;3.00;3.00;;;;;;;;5079112;28;45442;-74
2022/09/20 00:42:31;;;;;;;;;6.00;6.00;;;;;;;;5077247;27;45381;-72
2022/09/20 00:44:58;;;;;;;;;3.50;3.50;;;;;;;;5076743;28;45472;-70
2022/09/20 00:47:23;;;;;;;;;3.25;3.25;;;;;;;;5076220;28;46296;-72
2022/09/20 00:49:50;;;;;;;;;4.00;4.00;;;;;;;;5076158;28;45381;-73
2022/09/20 00:52:16;;;;;;;;;2.50;2.50;;;;;;;;5057613;28;45395;-72
2022/09/20 00:54:41;;;;;;;;;9.25;9.25;;;;;;;;5076119;27;45283;-71
2022/09/20 00:57:07;;;;;;;;;3.00;3.00;;;;;;;;5057935;28;46391;-73
2022/09/20 00:59:34;;;;;;;;;1.75;1.75;;;;;;;;5076397;28;45433;-72
2022/09/20 01:02:05;;;;;;;;;4.25;4.25;;;;;;;;5076285;28;45373;-72
2022/09/20 01:04:31;;;;;;;;;4.00;4.00;;;;;;;;5076432;28;45384;-72
2022/09/20 01:06:59;;;;;;;;;2.25;2.25;;;;;;;;5075821;28;45556;-71
2022/09/20 01:09:24;;;;;;;;;2.75;2.75;;;;;;;;5075877;28;45434;-71
2022/09/20 01:11:50;;;;;;;;;1.75;1.75;;;;;;;;5075923;28;45359;-72
2022/09/20 01:14:18;;;;;;;;;3.75;3.00;;;;;;;;5058110;28;45343;-73
2022/09/20 01:16:43;;;;;;;;;3.00;3.00;;;;;;;;5076478;28;46569;-73
2022/09/20 01:19:18;;;;;;;;;3.00;3.00;;;;;;;;5076263;28;45315;-72
2022/09/20 01:21:45;;;;;;;;;3.75;3.75;;;;;;;;5076104;28;45189;-73
2022/09/20 01:24:19;;;;;;;;;3.00;3.00;;;;;;;;5076498;28;45577;-72
2022/09/20 01:27:05;;;;;;;;;3.00;3.00;;;;;;;;5075894;28;45578;-75
2022/09/20 01:29:30;;;;;;;;;4.00;4.00;;;;;;;;5076154;28;45236;-72
2022/09/20 01:31:59;;;;;;;;;3.75;3.75;;;;;;;;5075924;28;45227;-75
2022/09/20 01:34:35;;;;;;;;;3.00;3.00;;;;;;;;5076300;28;45493;-73
2022/09/20 01:37:15;;;;;;;;;3.00;3.00;;;;;;;;5075533;28;45512;-73
2022/09/20 01:39:53;;;;;;;;;3.00;3.00;;;;;;;;5075960;27;45291;-71
2022/09/20 01:42:23;;;;;;;;;3.00;3.00;;;;;;;;5075689;28;45429;-74
2022/09/20 01:44:55;;;;;;;;;6.25;6.25;;;;;;;;5075855;28;45249;-75
2022/09/20 01:47:20;;;;;;;;;4.00;4.00;;;;;;;;5076145;28;46709;-70
2022/09/20 01:49:54;;;;;;;;;3.00;3.00;;;;;;;;5075917;28;45341;-71
2022/09/20 01:52:31;;;;;;;;;5.75;5.75;;;;;;;;5075591;27;45396;-73
2022/09/20 01:55:03;;;;;;;;;6.75;6.75;;;;;;;;5076198;28;45496;-74
2022/09/20 01:57:37;;;;;;;;;4.25;4.25;;;;;;;;5075959;28;46265;-73
2022/09/20 02:00:08;;;;;;;;;4.00;4.00;;;;;;;;5075466;28;45347;-73
2022/09/20 02:02:36;;;;;;;;;6.00;6.00;;;;;;;;5075711;28;45299;-73
2022/09/20 02:05:10;;;;;;;;;5.00;5.00;;;;;;;;5079031;28;45619;-74
2022/09/20 02:07:37;;;;;;;;;5.00;5.00;;;;;;;;5079055;28;45417;-71
2022/09/20 02:10:21;;;;;;;;;5.75;5.75;;;;;;;;5078976;28;45414;-71
2022/09/20 02:12:46;;;;;;;;;6.75;6.75;;;;;;;;5079319;28;45248;-71
2022/09/20 02:15:30;;;;;;;;;2.25;2.25;;;;;;;;5079206;28;45152;-72
2022/09/20 02:17:58;;;;;;;;;4.00;4.00;;;;;;;;5078728;28;47118;-72
2022/09/20 02:20:46;;;;;;;;;5.00;5.00;;;;;;;;5079074;28;45335;-74
2022/09/20 02:23:20;;;;;;;;;4.50;4.50;;;;;;;;5079035;28;45422;-72
2022/09/20 02:26:17;;;;;;;;;3.25;3.25;;;;;;;;5079010;28;45473;-72
2022/09/20 02:28:42;;;;;;;;;3.75;3.75;;;;;;;;5044133;28;45543;-71
2022/09/20 02:31:26;;;;;;;;;4.00;4.00;;;;;;;;5079086;28;45306;-70
2022/09/20 02:34:11;;;;;;;;;4.00;4.00;;;;;;;;5060326;28;45442;-70
2022/09/20 02:36:54;;;;;;;;;4.00;4.00;;;;;;;;5078693;28;45657;-71
2022/09/20 02:39:32;;;;;;;;;4.00;4.00;;;;;;;;5078705;28;46275;-72
2022/09/20 02:42:04;;;;;;;;;4.00;4.00;;;;;;;;5078667;28;45175;-71
2022/09/20 02:44:41;;;;;;;;;5.00;5.00;;;;;;;;5078364;28;45499;-71
2022/09/20 02:47:09;;;;;;;;;2.50;2.50;;;;;;;;5060875;28;45577;-71
2022/09/20 02:49:41;;;;;;;;;5.50;5.00;;;;;;;;5078485;28;46103;-72
2022/09/20 02:52:15;;;;;;;;;4.75;4.75;;;;;;;;5059960;28;45389;-71
2022/09/20 02:54:57;;;;;;;;;4.00;4.00;;;;;;;;5078735;28;45331;-71
2022/09/20 02:57:23;;;;;;;;;4.00;4.00;;;;;;;;5078558;28;45318;-70
2022/09/20 02:59:51;;;;;;;;;3.25;3.25;;;;;;;;5059464;28;46170;-71
2022/09/20 03:02:16;;;;;;;;;4.00;4.00;;;;;;;;5077836;28;45399;-71
2022/09/20 03:04:52;;;;;;;;;5.00;5.00;;;;;;;;5078323;28;45409;-71
2022/09/20 03:07:40;;;;;;;;;3.00;3.00;;;;;;;;5078525;28;45251;-70
2022/09/20 03:10:14;;;;;;;;;3.00;3.00;;;;;;;;5077746;28;45353;-71
2022/09/20 03:12:56;;;;;;;;;4.50;4.25;;;;;;;;5078218;28;45280;-71
2022/09/20 03:15:44;;;;;;;;;2.75;2.75;;;;;;;;5059065;28;45411;-71
2022/09/20 03:18:12;;;;;;;;;3.00;3.00;;;;;;;;5077278;27;45374;-70
2022/09/20 03:20:42;;;;;;;;;4.00;4.00;;;;;;;;5077570;28;46376;-72
2022/09/20 03:23:23;;;;;;;;;4.00;4.00;;;;;;;;5075626;28;45375;-71
2022/09/20 03:25:59;;;;;;;;;3.25;3.25;;;;;;;;5076051;28;45488;-71
2022/09/20 03:28:25;;;;;;;;;4.00;4.00;;;;;;;;5077692;28;45403;-72
2022/09/20 03:31:02;;;;;;;;;5.00;5.00;;;;;;;;5078122;28;45296;-73
2022/09/20 03:33:39;;;;;;;;;5.50;5.50;;;;;;;;5078481;28;45401;-74
2022/09/20 03:36:11;;;;;;;;;5.75;5.75;;;;;;;;5077900;28;45324;-74
2022/09/20 03:38:55;;;;;;;;;4.75;4.75;;;;;;;;5077914;28;45362;-73
2022/09/20 03:41:38;;;;;;;;;5.75;5.75;;;;;;;;5077907;28;45558;-72
2022/09/20 03:44:13;;;;;;;;;4.75;4.75;;;;;;;;5077670;28;45414;-72
2022/09/20 03:46:50;;;;;;;;;5.00;5.00;;;;;;;;5077951;28;45249;-71
2022/09/20 03:49:34;;;;;;;;;6.50;6.50;;;;;;;;5077240;28;45469;-70
2022/09/20 03:52:06;;;;;;;;;6.25;6.25;;;;;;;;5077694;28;46637;-71
2022/09/20 03:54:37;;;;;;;;;6.00;6.00;;;;;;;;5077199;28;45314;-72
2022/09/20 03:57:14;;;;;;;;;6.00;6.00;;;;;;;;5077175;28;45326;-73
2022/09/20 04:00:00;;;;;;;;;7.00;7.00;;;;;;;;5077432;28;45290;-71
2022/09/20 04:02:25;;;;;;;;;5.00;5.00;;;;;;;;5077131;28;45916;-71
2022/09/20 04:05:03;;;;;;;;;3.75;3.75;;;;;;;;5077283;28;45274;-74
2022/09/20 04:07:38;;;;;;;;;4.25;4.25;;;;;;;;5077267;28;45295;-73
2022/09/20 04:10:04;;;;;;;;;4.75;4.75;;;;;;;;5077480;28;45310;-75
2022/09/20 04:12:51;;;;;;;;;4.00;4.00;;;;;;;;5076987;28;45315;-74
2022/09/20 04:15:35;;;;;;;;;5.00;5.00;;;;;;;;5077588;28;45711;-70
2022/09/20 04:18:03;;;;;;;;;5.50;5.50;;;;;;;;5077314;28;45449;-71
2022/09/20 04:20:33;;;;;;;;;5.00;5.00;;;;;;;;5059986;28;45488;-73
2022/09/20 04:23:02;;;;;;;;;5.75;5.00;;;;;;;;5058626;28;48611;-74
2022/09/20 04:25:37;;;;;;;;;5.50;5.50;;;;;;;;5076374;28;45390;-72
2022/09/20 04:28:22;;;;;;;;;5.00;5.00;;;;;;;;5058618;28;45456;-75
2022/09/20 04:30:48;;;;;;;;;5.00;5.00;;;;;;;;5077733;28;45446;-71
2022/09/20 04:33:30;;;;;;;;;6.00;6.00;;;;;;;;5077256;28;45805;-73
2022/09/20 04:36:29;;;;;;;;;5.75;5.75;;;;;;;;5076615;28;45367;-72
2022/09/20 04:39:18;;;;;;;;;4.50;4.50;;;;;;;;5076945;28;45101;-71
2022/09/20 04:42:01;;;;;;;;;5.75;5.75;;;;;;;;5077376;28;45347;-71
2022/09/20 04:44:45;;;;;;;;;4.75;4.75;;;;;;;;5076691;28;45469;-74
2022/09/20 04:47:48;;;;;;;;;5.50;5.50;;;;;;;;5076228;28;45176;-74
2022/09/20 04:50:14;;;;;;;;;3.75;3.75;;;;;;;;5034293;28;45800;-74
2022/09/20 04:52:57;;;;;;;;;4.00;4.00;;;;;;;;5033987;28;45193;-74
2022/09/20 04:55:43;;;;;;;;;5.00;5.00;;;;;;;;5040920;28;46005;-72
2022/09/20 04:58:11;;;;;;;;;4.50;4.50;;;;;;;;5076068;28;45377;-73
2022/09/20 05:00:52;;;;;;;;;5.00;5.00;;;;;;;;5076519;28;45227;-72
2022/09/20 05:03:38;;;;;;;;;5.00;5.00;;;;;;;;5076973;28;45280;-72
2022/09/20 05:06:09;;;;;;;;;15.00;14.75;;;;;;;;5075343;28;45372;-75
2022/09/20 05:08:47;;;;;;;;;6.00;5.00;;;;;;;;5076224;28;45453;-72
2022/09/20 05:11:24;;;;;;;;;5.00;5.00;;;;;;;;5075983;28;45339;-73
2022/09/20 05:13:58;;;;;;;;;4.50;4.50;;;;;;;;5076358;28;45390;-75
2022/09/20 05:16:35;;;;;;;;;6.00;6.00;;;;;;;;5075507;28;46270;-71
2022/09/20 05:19:15;;;;;;;;;5.75;5.75;;;;;;;;5075259;28;45530;-74
2022/09/20 05:21:40;;;;;;;;;6.50;6.50;;;;;;;;5075986;28;45469;-73
2022/09/20 05:24:12;;;;;;;;;6.00;6.00;;;;;;;;5076289;28;45471;-72
2022/09/20 05:26:55;;;;;;;;;6.00;5.00;;;;;;;;5075932;28;46937;-71
2022/09/20 05:29:27;;;;;;;;;5.50;5.00;;;;;;;;5076468;28;45319;-71
2022/09/20 05:32:17;;;;;;;;;5.00;5.00;;;;;;;;5075987;28;45599;-71
2022/09/20 05:35:02;;;;;;;;;5.75;5.75;;;;;;;;5075851;28;45480;-74
2022/09/20 05:37:27;;;;;;;;;6.00;6.00;;;;;;;;5076789;28;45455;-73
2022/09/20 05:40:13;;;;;;;;;6.00;6.00;;;;;;;;5079643;28;45303;-72
2022/09/20 05:42:41;;;;;;;;;5.25;5.25;;;;;;;;5079041;27;45434;-72
2022/09/20 05:45:37;;;;;;;;;4.25;4.25;;;;;;;;5079385;28;45418;-75
2022/09/20 05:48:08;;;;;;;;;5.25;5.25;;;;;;;;5078031;28;45676;-71
2022/09/20 05:50:49;;;;;;;;;4.50;4.50;;;;;;;;5077948;28;45431;-73
2022/09/20 05:53:32;;;;;;;;;9.00;9.00;;;;;;;;5078390;28;45195;-76
2022/09/20 05:56:09;;;;;;;;;8.00;8.00;;;;;;;;5078456;28;45607;-72
2022/09/20 05:58:51;;;;;;;;;5.25;5.25;;;;;;;;5077896;28;45731;-73
2022/09/20 06:01:31;;;;;;;;;8.75;8.75;;;;;;;;5077961;28;45372;-74
2022/09/20 06:03:56;;;;;;;;;7.50;7.50;;;;;;;;5077868;28;45276;-71
2022/09/20 06:06:27;;;;;;;;;5.00;5.00;;;;;;;;5078851;28;45178;-72
2022/09/20 06:09:12;;;;;;;;;5.00;5.00;;;;;;;;5059801;28;47755;-72
2022/09/20 06:11:53;;;;;;;;;4.75;4.75;;;;;;;;5077363;28;45374;-74
2022/09/20 06:14:19;;;;;;;;;6.75;6.75;;;;;;;;5078002;27;45309;-73
2022/09/20 06:17:02;;;;;;;;;28.25;28.00;;;;;;;;5078627;28;45639;-73
2022/09/20 06:19:34;;;;;;;;;8.75;8.75;;;;;;;;5078190;28;46326;-75
2022/09/20 06:22:20;;;;;;;;;6.75;6.75;;;;;;;;5060231;28;45245;-72
2022/09/20 06:24:58;;;;;;;;;4.50;4.50;;;;;;;;5059312;28;45237;-74
2022/09/20 06:27:25;;;;;;;;;6.50;6.50;;;;;;;;5078557;28;45581;-71
2022/09/20 06:29:59;;;;;;;;;5.50;5.50;;;;;;;;5078102;28;45358;-72
2022/09/20 06:32:24;;;;;;;;;9.75;9.00;;;;;;;;5077456;28;45420;-72
2022/09/20 06:34:50;;;;;;;;;7.75;7.75;;;;;;;;5077402;28;45395;-73
2022/09/20 06:43:07;;;;;;;;;10.25;10.25;;;;;;;;5076838;28;45318;-72
2022/09/20 06:45:32;;;;;;;;;4.50;4.50;;;;;;;;5058771;28;45382;-73
2022/09/20 06:48:01;;;;;;;;;7.50;7.50;;;;;;;;5077465;27;45588;-72
2022/09/20 06:50:26;;;;;;;;;7.75;7.75;;;;;;;;5076359;28;46240;-72
2022/09/20 06:52:52;;;;;;;;;7.75;7.75;;;;;;;;5077250;28;45238;-74
2022/09/20 06:55:20;;;;;;;;;7.00;7.00;;;;;;;;5077068;28;45282;-74
2022/09/20 06:57:45;;;;;;;;;6.25;6.25;;;;;;;;5077340;28;45283;-73
2022/09/20 07:00:14;;;;;;;;;5.00;5.00;;;;;;;;5077017;28;46257;-72
2022/09/20 07:02:39;;;;;;;;;5.75;5.75;;;;;;;;5076688;28;45447;-72
2022/09/20 07:05:06;;;;;;;;;8.25;8.00;;;;;;;;5076946;28;45405;-71
2022/09/20 07:07:31;;;;;;;;;8.75;7.00;;;;;;;;5077160;28;45236;-71
2022/09/20 07:09:57;;;;;;;;;7.25;7.25;;;;;;;;5076941;28;46062;-69
2022/09/20 07:12:23;;;;;;;;;9.00;7.25;;;;;;;;5077155;28;45388;-72
2022/09/20 07:14:49;;;;;;;;;6.25;6.25;;;;;;;;5077055;28;45276;-73
2022/09/20 07:17:14;;;;;;;;;9.00;8.00;;;;;;;;5058998;28;45394;-71
2022/09/20 07:19:39;;;;;;;;;9.75;8.50;;;;;;;;5076685;28;45588;-71
2022/09/20 07:22:05;;;;;;;;;6.75;6.75;;;;;;;;5076393;28;45235;-73
2022/09/20 07:24:31;;;;;;;;;7.25;7.25;;;;;;;;5058785;28;45319;-75
2022/09/20 07:26:58;;;;;;;;;8.50;8.00;;;;;;;;5077496;28;45624;-73
2022/09/20 07:29:23;;;;;;;;;10.75;10.75;;;;;;;;5073155;27;45884;-75
2022/09/20 07:31:49;;;;;;;;;12.00;10.50;;;;;;;;5074833;27;45383;-74
2022/09/20 07:34:16;;;;;;;;;9.75;9.75;;;;;;;;5079389;27;45466;-74
2022/09/20 07:36:41;;;;;;;;;11.25;10.50;;;;;;;;5076241;27;46001;-77
2022/09/20 07:39:07;;;;;;;;;8.50;8.50;;;;;;;;5078736;27;45886;-76
2022/09/20 07:41:32;;;;;;;;;8.25;8.25;;;;;;;;5076270;27;45325;-76
2022/09/20 07:44:19;;;;;;;;;9.75;9.75;;;;;;;;5070939;27;45428;-79
2022/09/20 07:46:46;;;;;;;;;7.25;7.25;;;;;;;;5076951;27;45464;-75
2022/09/20 07:49:12;;;;;;;;;6.25;6.25;;;;;;;;5079650;28;46216;-78
2022/09/20 07:51:37;;;;;;;;;7.75;7.75;;;;;;;;5064618;28;45270;-76
2022/09/20 07:54:02;;;;;;;;;6.75;6.75;;;;;;;;5078952;28;45301;-77
2022/09/20 07:56:27;;;;;;;;;7.00;7.00;;;;;;;;5058643;28;45607;-76
2022/09/20 07:58:53;;;;;;;;;9.50;9.50;;;;;;;;5058542;28;48403;-76
2022/09/20 08:01:19;;;;;;;;;8.25;8.25;;;;;;;;5057327;28;45910;-76
2022/09/20 08:03:45;;;;;;;;;9.00;9.00;;;;;;;;5076822;28;45810;-79
2022/09/20 08:06:13;;;;;;;;;5.00;5.00;;;;;;;;5076981;28;45325;-77
2022/09/20 08:08:39;;;;;;;;;8.50;8.50;;;;;;;;5076588;28;46197;-77
2022/09/20 08:11:06;;;;;;;;;8.25;8.25;;;;;;;;5076400;28;45472;-76
2022/09/20 08:13:34;;;;;;;;;8.50;8.50;;;;;;;;5076876;28;45281;-76
2022/09/20 08:16:01;;;;;;;;;10.00;10.00;;;;;;;;5078337;28;45486;-74
2022/09/20 08:18:26;;;;;;;;;7.75;7.75;;;;;;;;5077892;28;45338;-75
2022/09/20 08:20:52;;;;;;;;;8.75;7.75;;;;;;;;5077044;28;45346;-76
2022/09/20 08:23:17;;;;;;;;;8.00;8.00;;;;;;;;5058565;28;45333;-77
2022/09/20 08:25:42;;;;;;;;;6.00;6.00;;;;;;;;5077830;28;45220;-76
2022/09/20 08:28:08;;;;;;;;;11.00;10.25;;;;;;;;5077096;28;46580;-75
2022/09/20 08:30:33;;;;;;;;;8.25;8.25;;;;;;;;5076477;28;45468;-77
2022/09/20 08:32:58;;;;;;;;;7.00;7.00;;;;;;;;5077779;28;45366;-76
2022/09/20 08:35:25;;;;;;;;;8.00;6.00;;;;;;;;5078637;28;45543;-79
2022/09/20 08:37:53;;;;;;;;;7.00;7.00;;;;;;;;5058202;28;48072;-76
2022/09/20 08:40:20;;;;;;;;;5.00;5.00;;;;;;;;5076939;28;45186;-77
2022/09/20 08:42:45;;;;;;;;;5.50;5.50;;;;;;;;5059906;28;45330;-81
2022/09/20 08:45:15;;;;;;;;;5.75;5.75;;;;;;;;5079243;28;45645;-77
2022/09/20 08:47:47;;;;;;;;;7.75;7.75;;;;;;;;5077212;28;45393;-79
2022/09/20 08:50:14;;;;;;;;;7.50;7.50;;;;;;;;5076375;28;45534;-75
2022/09/20 08:52:43;;;;;;;;;6.25;6.25;;;;;;;;5076303;28;45322;-75
2022/09/20 08:55:19;;;;;;;;;63.67;52.67;;;;;;;;5057958;28;45299;-75
2022/09/20 08:57:49;;;;;;;;;4.75;4.75;;;;;;;;5076544;28;45588;-80
2022/09/20 09:00:19;;;;;;;;;6.50;6.50;;;;;;;;5077248;28;45392;-77
2022/09/20 09:02:45;;;;;;;;;6.50;6.50;;;;;;;;5079076;27;45291;-78
2022/09/20 09:05:36;;;;;;;;;5.00;5.00;;;;;;;;5077587;28;45604;-77
2022/09/20 09:08:05;;;;;;;;;8.25;8.25;;;;;;;;5077793;28;45794;-79
2022/09/20 09:10:35;;;;;;;;;5.00;5.00;;;;;;;;5076545;28;45352;-78
2022/09/20 09:13:00;;;;;;;;;5.00;5.00;;;;;;;;5077615;28;45384;-79
2022/09/20 09:15:46;;;;;;;;;5.00;5.00;;;;;;;;5077936;28;45333;-77
2022/09/20 09:18:11;;;;;;;;;6.00;6.00;;;;;;;;5058218;28;46478;-79
2022/09/20 09:20:40;;;;;;;;;4.00;4.00;;;;;;;;5077525;28;45309;-78
2022/09/20 09:23:07;;;;;;;;;8.50;7.50;;;;;;;;5076688;28;45424;-78
2022/09/20 09:25:39;;;;;;;;;3.50;3.50;;;;;;;;5077654;28;45446;-78
2022/09/20 09:28:07;;;;;;;;;6.75;6.75;;;;;;;;5078055;28;46272;-76
2022/09/20 09:30:34;;;;;;;;;7.50;7.50;;;;;;;;5077760;28;45338;-75
2022/09/20 09:33:18;;;;;;;;;5.75;5.75;;;;;;;;5058616;28;45316;-76
2022/09/20 09:35:51;;;;;;;;;5.25;5.25;;;;;;;;5076006;28;45546;-73
2022/09/20 09:38:17;;;;;;;;;11.50;10.00;;;;;;;;5075838;28;45309;-76
2022/09/20 09:40:53;;;;;;;;;8.50;8.50;;;;;;;;5076426;28;45414;-75
2022/09/20 09:43:22;;;;;;;;;6.00;6.00;;;;;;;;5076020;28;45364;-78
2022/09/20 09:45:48;;;;;;;;;7.00;7.00;;;;;;;;5081473;28;45437;-74
2022/09/20 09:48:16;;;;;;;;;6.00;6.00;;;;;;;;5084128;28;45297;-81
2022/09/20 09:50:41;;;;;;;;;5.00;5.00;;;;;;;;5061327;28;45283;-81
2022/09/20 09:53:12;;;;;;;;;5.50;5.50;;;;;;;;5077162;28;45270;-78
2022/09/20 09:55:50;;;;;;;;;4.75;4.75;;;;;;;;5077117;27;45295;-81
2022/09/20 09:58:30;;;;;;;;;8.00;6.00;;;;;;;;5076955;28;45579;-82
2022/09/20 10:00:58;;;;;;;;;5.00;5.00;;;;;;;;5075039;28;45267;-75
2022/09/20 10:03:42;;;;;;;;;5.50;5.50;;;;;;;;5074670;28;45343;-74
2022/09/20 10:06:17;;;;;;;;;8.00;8.00;;;;;;;;5075752;28;45356;-75
2022/09/20 10:09:00;;;;;;;;;6.75;6.75;;;;;;;;5077010;28;45495;-76
2022/09/20 10:11:32;;;;;;;;;8.75;8.00;;;;;;;;5076590;28;45275;-76
2022/09/20 10:14:06;;;;;;;;;9.00;9.00;;;;;;;;5077188;27;45558;-78
2022/09/20 10:16:32;;;;;;;;;10.25;10.25;;;;;;;;5077742;28;45675;-74
2022/09/20 10:19:17;;;;;;;;;7.25;7.25;;;;;;;;5076711;28;45338;-75
2022/09/20 10:21:47;;;;;;;;;6.75;6.75;;;;;;;;5076014;28;45190;-75
2022/09/20 10:24:39;;;;;;;;;8.25;8.25;;;;;;;;5076630;28;45309;-75
2022/09/20 10:27:07;;;;;;;;;5.00;5.00;;;;;;;;5080249;28;45328;-78
2022/09/20 10:29:32;;;;;;;;;8.75;8.25;;;;;;;;5079101;28;45550;-76
2022/09/20 10:32:08;;;;;;;;;9.00;9.00;;;;;;;;5078323;28;45707;-75
2022/09/20 10:34:34;;;;;;;;;6.50;6.50;;;;;;;;5061547;28;45320;-80
2022/09/20 10:36:59;;;;;;;;;5.75;5.75;;;;;;;;5060523;28;45241;-76
2022/09/20 10:39:33;;;;;;;;;5.00;5.00;;;;;;;;5078245;28;46469;-78
2022/09/20 10:45:12;;;;;;;;;16.75;16.75;;;;;;;;5077603;28;45296;-76
2022/09/20 10:47:56;;;;;;;;;6.25;6.25;;;;;;;;5079773;28;45663;-76
2022/09/20 10:50:28;;;;;;;;;2.75;2.75;;;;;;;;5079172;28;45442;-77
2022/09/20 10:52:53;;;;;;;;;3.50;3.50;;;;;;;;5078756;28;45417;-75
2022/09/20 10:55:19;;;;;;;;;7.25;7.25;;;;;;;;5081272;28;45352;-76
2022/09/20 10:58:03;;;;;;;;;9.25;9.25;;;;;;;;5079477;28;45311;-76
2022/09/20 11:00:37;;;;;;;;;10.75;10.75;;;;;;;;5080178;28;45779;-78
2022/09/20 11:03:09;;;;;;;;;8.00;8.00;;;;;;;;5059878;28;45807;-75
2022/09/20 11:05:37;;;;;;;;;11.50;11.50;;;;;;;;5078355;27;45265;-74
2022/09/20 11:08:02;;;;;;;;;4.00;3.00;;;;;;;;5077808;28;45616;-75
2022/09/20 11:10:35;;;;;;;;;1.75;1.75;;;;;;;;5077445;28;45259;-76
2022/09/20 11:13:20;;;;;;;;;1.00;1.00;;;;;;;;5077849;28;45321;-75
2022/09/20 11:15:45;;;;;;;;;1.00;1.00;;;;;;;;5077462;27;45260;-74
2022/09/20 11:18:23;;;;;;;;;9.50;9.50;;;;;;;;5078091;28;45606;-75
2022/09/20 11:21:02;;;;;;;;;9.25;9.00;;;;;;;;5078163;28;46370;-74
2022/09/20 11:23:30;;;;;;;;;7.00;7.00;;;;;;;;5077532;28;45325;-75
2022/09/20 11:26:01;;;;;;;;;3.50;3.50;;;;;;;;5078394;28;45264;-78
2022/09/20 11:28:38;;;;;;;;;4.75;4.75;;;;;;;;5078907;28;45401;-75
2022/09/20 11:31:03;;;;;;;;;2.50;2.50;;;;;;;;5076784;28;45453;-77
2022/09/20 11:33:31;;;;;;;;;3.00;3.00;;;;;;;;5077685;28;45279;-76
2022/09/20 11:35:59;;;;;;;;;7.50;7.00;;;;;;;;5077465;28;45164;-76
2022/09/20 11:38:40;;;;;;;;;5.00;5.00;;;;;;;;5075082;28;45437;-75
2022/09/20 11:41:18;;;;;;;;;4.75;4.00;;;;;;;;5075969;28;46306;-75
2022/09/20 11:43:45;;;;;;;;;2.50;2.50;;;;;;;;5056411;28;45475;-75
2022/09/20 11:46:18;;;;;;;;;2.00;2.00;;;;;;;;5058760;28;45385;-76
2022/09/20 11:48:43;;;;;;;;;3.75;3.75;;;;;;;;5076756;28;45388;-78
2022/09/20 11:51:21;;;;;;;;;4.00;4.00;;;;;;;;5077265;28;45671;-79
2022/09/20 11:53:52;;;;;;;;;12.75;12.00;;;;;;;;5077393;28;45436;-78
2022/09/20 11:56:25;;;;;;;;;10.25;10.25;;;;;;;;5077271;28;45232;-78
2022/09/20 11:58:52;;;;;;;;;5.75;5.75;;;;;;;;5077027;28;45480;-74
2022/09/20 12:01:24;;;;;;;;;1.75;1.75;;;;;;;;5076644;28;45218;-77
2022/09/20 12:03:51;;;;;;;;;3.50;3.50;;;;;;;;5057259;28;45746;-75
2022/09/20 12:06:25;;;;;;;;;15.00;15.00;;;;;;;;5076589;28;45287;-76
2022/09/20 12:08:51;;;;;;;;;35.25;32.75;;;;;;;;5076885;28;45211;-74
2022/09/20 12:11:25;;;;;;;;;3.25;3.00;;;;;;;;5058263;28;46507;-77
2022/09/20 12:14:13;;;;;;;;;3.25;3.25;;;;;;;;5058421;28;45280;-76
2022/09/20 12:16:40;;;;;;;;;4.50;4.50;;;;;;;;5069248;27;45353;-74
2022/09/20 12:19:09;;;;;;;;;1.25;1.25;;;;;;;;5060673;28;45319;-74
2022/09/20 12:21:53;;;;;;;;;1.25;1.25;;;;;;;;5076294;28;45946;-75
2022/09/20 12:24:19;;;;;;;;;2.50;2.50;;;;;;;;5077570;28;45605;-75
2022/09/20 12:26:45;;;;;;;;;5.00;5.00;;;;;;;;5077022;28;45221;-74
2022/09/20 12:29:22;;;;;;;;;3.00;3.00;;;;;;;;5078303;27;45226;-75
2022/09/20 12:31:48;;;;;;;;;4.00;4.00;;;;;;;;5080190;28;45447;-74
2022/09/20 12:34:14;;;;;;;;;3.00;3.00;;;;;;;;5077640;28;45281;-75
2022/09/20 12:36:43;;;;;;;;;3.25;3.25;;;;;;;;5077129;28;45440;-75
2022/09/20 12:39:11;;;;;;;;;3.25;3.25;;;;;;;;5077584;28;45224;-78
2022/09/20 12:41:50;;;;;;;;;16.25;16.25;;;;;;;;5077167;28;45504;-76
2022/09/20 12:44:24;;;;;;;;;2.75;2.75;;;;;;;;5077323;27;45408;-76
2022/09/20 12:46:53;;;;;;;;;4.00;4.00;;;;;;;;5078097;28;45396;-78
2022/09/20 12:52:49;;;;;;;;;6.25;6.25;;;;;;;;5077472;27;45373;-78
2022/09/20 12:53:04;;;;;;;;;1.25;1.25;;;;;;;;5077887;28;45866;-78
2022/09/20 12:54:57;;;;;;;;;2.00;1.50;;;;;;;;5067502;27;45530;-76
2022/09/20 12:57:31;;;;;;;;;2.50;2.50;;;;;;;;5059581;28;45302;-81
2022/09/20 12:59:57;;;;;;;;;1.00;1.00;;;;;;;;5080751;28;45333;-77
2022/09/20 13:02:46;;;;;;;;;5.00;5.00;;;;;;;;5078296;28;45269;-81
2022/09/20 13:05:31;;;;;;;;;3.25;3.25;;;;;;;;5040662;28;45439;-79
2022/09/20 13:08:01;;;;;;;;;3.00;3.00;;;;;;;;5078765;27;45168;-77
2022/09/20 13:10:29;;;;;;;;;8.75;8.75;;;;;;;;5077041;28;45240;-76
2022/09/20 13:13:15;;;;;;;;;3.25;3.25;;;;;;;;5059503;28;47252;-77
2022/09/20 13:15:47;;;;;;;;;3.25;3.25;;;;;;;;5075346;27;45337;-77
2022/09/20 13:18:14;;;;;;;;;7.00;7.00;;;;;;;;5076099;28;45354;-77
2022/09/20 13:20:40;;;;;;;;;4.00;3.00;;;;;;;;5076364;28;45203;-78
2022/09/20 13:23:05;;;;;;;;;2.00;2.00;;;;;;;;5075785;28;46440;-80
2022/09/20 13:25:31;;;;;;;;;1.25;1.25;;;;;;;;5076510;28;45161;-77
2022/09/20 13:28:16;;;;;;;;;2.50;2.50;;;;;;;;5058011;28;45355;-75
2022/09/20 13:30:41;;;;;;;;;2.50;2.50;;;;;;;;5078250;28;45436;-77
2022/09/20 13:33:14;;;;;;;;;1.75;1.75;;;;;;;;5079962;28;45298;-77
2022/09/20 13:35:40;;;;;;;;;1.75;1.75;;;;;;;;5078464;28;45285;-77
2022/09/20 13:38:07;;;;;;;;;3.00;3.00;;;;;;;;5057139;28;45333;-79
2022/09/20 13:40:48;;;;;;;;;3.50;3.50;;;;;;;;5075504;28;45993;-78
2022/09/20 13:43:31;;;;;;;;;2.00;2.00;;;;;;;;5075585;28;45554;-79
2022/09/20 13:45:58;;;;;;;;;5.00;5.00;;;;;;;;5075735;28;45313;-76
2022/09/20 13:48:25;;;;;;;;;1.25;1.25;;;;;;;;5057481;28;45345;-78
2022/09/20 13:50:50;;;;;;;;;4.00;4.00;;;;;;;;5076061;28;45521;-83
2022/09/20 13:53:17;;;;;;;;;5.00;5.00;;;;;;;;5076186;28;46113;-77
2022/09/20 13:55:43;;;;;;;;;3.25;3.25;;;;;;;;5058112;28;45351;-79
2022/09/20 13:58:17;;;;;;;;;1.00;1.00;;;;;;;;5077091;28;45767;-82
2022/09/20 14:00:48;;;;;;;;;3.00;3.00;;;;;;;;5061536;28;45477;-79
2022/09/20 14:03:15;;;;;;;;;1.00;1.00;;;;;;;;5061229;28;46136;-81
2022/09/20 14:05:45;;;;;;;;;8.25;8.25;;;;;;;;5079479;28;45451;-83
2022/09/20 14:08:14;;;;;;;;;4.50;4.50;;;;;;;;5061309;28;45448;-83
2022/09/20 14:10:41;;;;;;;;;3.00;3.00;;;;;;;;5061656;28;45474;-76
2022/09/20 14:13:08;;;;;;;;;2.00;2.00;;;;;;;;5066792;28;47494;-79
2022/09/20 14:15:37;;;;;;;;;2.00;2.00;;;;;;;;5080093;28;45380;-78
2022/09/20 14:18:05;;;;;;;;;0.50;0.50;;;;;;;;5078653;28;45344;-76
2022/09/20 14:20:31;;;;;;;;;2.50;2.25;;;;;;;;5079167;28;45215;-78
2022/09/20 14:22:57;;;;;;;;;9.25;9.25;;;;;;;;5079278;28;45505;-79
2022/09/20 14:25:24;;;;;;;;;3.25;3.25;;;;;;;;5079178;28;45335;-78
2022/09/20 14:28:03;;;;;;;;;3.00;3.00;;;;;;;;5061468;28;45395;-78
2022/09/20 14:30:30;;;;;;;;;4.50;4.50;;;;;;;;5079734;27;45336;-79
2022/09/20 14:32:56;;;;;;;;;13.00;13.00;;;;;;;;5080219;28;46549;-79
2022/09/20 14:35:22;;;;;;;;;4.00;4.00;;;;;;;;5062093;28;45536;-80
2022/09/20 14:37:49;;;;;;;;;2.00;2.00;;;;;;;;5078345;28;45295;-80
2022/09/20 14:40:17;;;;;;;;;7.50;7.50;;;;;;;;5078468;28;45299;-81
2022/09/20 14:42:44;;;;;;;;;2.00;2.00;;;;;;;;5077733;28;45574;-76
2022/09/20 14:45:30;;;;;;;;;2.00;2.00;;;;;;;;5080754;28;45359;-79
2022/09/20 14:48:02;;;;;;;;;3.00;3.00;;;;;;;;5077823;28;45201;-76
2022/09/20 14:50:30;;;;;;;;;3.25;3.25;;;;;;;;5079802;28;45494;-74
2022/09/20 14:52:59;;;;;;;;;3.00;3.00;;;;;;;;5081728;28;45685;-75
2022/09/20 14:55:27;;;;;;;;;2.75;2.75;;;;;;;;5084253;28;45287;-77
2022/09/20 14:57:55;;;;;;;;;3.75;3.75;;;;;;;;5084036;28;45347;-73
2022/09/20 15:00:20;;;;;;;;;2.75;2.75;;;;;;;;5084031;28;45463;-74
2022/09/20 15:02:46;;;;;;;;;2.75;2.75;;;;;;;;5083192;28;46227;-74
2022/09/20 15:05:17;;;;;;;;;6.00;6.00;;;;;;;;5081390;28;45347;-75
2022/09/20 15:07:42;;;;;;;;;4.00;4.00;;;;;;;;5077883;28;45389;-77
2022/09/20 15:10:11;;;;;;;;;3.00;3.00;;;;;;;;5077276;28;45356;-76
2022/09/20 15:12:36;;;;;;;;;3.75;3.75;;;;;;;;5077508;28;46476;-78
2022/09/20 15:15:02;;;;;;;;;2.50;2.50;;;;;;;;5058859;28;45256;-75
2022/09/20 15:17:27;;;;;;;;;3.00;3.00;;;;;;;;5058877;28;45249;-78